Cannington, Canada
Current Conditions -  °F | °C
As of 10:00 AM on Monday 24 Nov 2014 (Local Time) from CYOO Reporting Station
Overcast Overcast  
Wind Chill: 55°   Ceiling: 3200
Heat Index: 55°   Visibility: 9mi
Dew Point: 50°   Wind: 15mph
Humidity: 82%   Direction: 210°SSW
Pressure: 29.23"   Gusts: 26mph
Location:  44.35°N, 79.03°W
Report Text: CYOO 241500Z AUTO 21013G23KT 9SM BKN032 OVC045 13/10 A2923 RMK SLP898 DENSITY ALT 1000FT
Loading
Personal Weather Stations






























Interactive Weather Map New forecast layout! Learn more

10-Day Weather Forecast

Advertisements
Track Severe Weather on mobile